sensor_id;sensor_type;location;lat;lon;timestamp;P1;durP1;ratioP1;P2;durP2;ratioP2
5052;SDS011;2545;50.892;5.740;2023-02-28T00:01:23;13.80;;;5.90;;
5052;SDS011;2545;50.892;5.740;2023-02-28T00:03:48;9.43;;;5.43;;
5052;SDS011;2545;50.892;5.740;2023-02-28T00:06:14;13.50;;;5.13;;
5052;SDS011;2545;50.892;5.740;2023-02-28T00:08:39;8.23;;;4.70;;
5052;SDS011;2545;50.892;5.740;2023-02-28T00:11:05;11.37;;;5.57;;
5052;SDS011;2545;50.892;5.740;2023-02-28T00:13:36;9.13;;;5.30;;
5052;SDS011;2545;50.892;5.740;2023-02-28T00:16:06;9.73;;;5.90;;
5052;SDS011;2545;50.892;5.740;2023-02-28T00:18:34;8.40;;;4.50;;
5052;SDS011;2545;50.892;5.740;2023-02-28T00:20:59;10.43;;;5.20;;
5052;SDS011;2545;50.892;5.740;2023-02-28T00:23:25;8.47;;;5.33;;
5052;SDS011;2545;50.892;5.740;2023-02-28T00:25:51;9.10;;;5.90;;
5052;SDS011;2545;50.892;5.740;2023-02-28T00:28:17;6.90;;;4.50;;
5052;SDS011;2545;50.892;5.740;2023-02-28T00:30:43;13.77;;;5.47;;
5052;SDS011;2545;50.892;5.740;2023-02-28T00:33:08;14.60;;;5.60;;
5052;SDS011;2545;50.892;5.740;2023-02-28T00:35:34;6.50;;;4.77;;
5052;SDS011;2545;50.892;5.740;2023-02-28T00:37:59;6.63;;;5.50;;
5052;SDS011;2545;50.892;5.740;2023-02-28T00:40:25;6.20;;;5.20;;
5052;SDS011;2545;50.892;5.740;2023-02-28T00:42:50;10.90;;;5.60;;
5052;SDS011;2545;50.892;5.740;2023-02-28T00:45:15;8.60;;;5.93;;
5052;SDS011;2545;50.892;5.740;2023-02-28T00:47:41;10.10;;;5.40;;
5052;SDS011;2545;50.892;5.740;2023-02-28T00:50:06;8.50;;;5.13;;
5052;SDS011;2545;50.892;5.740;2023-02-28T00:52:32;7.77;;;4.70;;
5052;SDS011;2545;50.892;5.740;2023-02-28T00:54:57;8.87;;;4.73;;
5052;SDS011;2545;50.892;5.740;2023-02-28T00:57:23;9.10;;;5.43;;
5052;SDS011;2545;50.892;5.740;2023-02-28T00:59:48;7.43;;;4.93;;
5052;SDS011;2545;50.892;5.740;2023-02-28T01:02:13;7.00;;;4.90;;
5052;SDS011;2545;50.892;5.740;2023-02-28T01:04:39;9.83;;;5.17;;
5052;SDS011;2545;50.892;5.740;2023-02-28T01:07:04;8.10;;;5.70;;
5052;SDS011;2545;50.892;5.740;2023-02-28T01:09:30;9.50;;;5.60;;
5052;SDS011;2545;50.892;5.740;2023-02-28T01:11:55;10.90;;;6.20;;
5052;SDS011;2545;50.892;5.740;2023-02-28T01:14:21;9.10;;;5.80;;
5052;SDS011;2545;50.892;5.740;2023-02-28T01:16:46;9.60;;;6.90;;
5052;SDS011;2545;50.892;5.740;2023-02-28T01:19:12;14.20;;;5.63;;
5052;SDS011;2545;50.892;5.740;2023-02-28T01:21:37;8.37;;;4.80;;
5052;SDS011;2545;50.892;5.740;2023-02-28T01:24:04;7.37;;;5.33;;
5052;SDS011;2545;50.892;5.740;2023-02-28T01:26:30;11.40;;;5.60;;
5052;SDS011;2545;50.892;5.740;2023-02-28T01:28:55;10.77;;;5.27;;
5052;SDS011;2545;50.892;5.740;2023-02-28T01:31:21;9.00;;;5.77;;
5052;SDS011;2545;50.892;5.740;2023-02-28T01:33:47;5.80;;;4.40;;
5052;SDS011;2545;50.892;5.740;2023-02-28T01:36:22;6.40;;;5.30;;
5052;SDS011;2545;50.892;5.740;2023-02-28T01:38:49;8.10;;;5.60;;
5052;SDS011;2545;50.892;5.740;2023-02-28T01:41:19;8.40;;;5.60;;
5052;SDS011;2545;50.892;5.740;2023-02-28T01:46:12;8.33;;;5.20;;
5052;SDS011;2545;50.892;5.740;2023-02-28T01:48:42;6.67;;;5.27;;
5052;SDS011;2545;50.892;5.740;2023-02-28T01:51:20;6.93;;;5.33;;
5052;SDS011;2545;50.892;5.740;2023-02-28T01:53:49;12.50;;;5.57;;
5052;SDS011;2545;50.892;5.740;2023-02-28T01:56:19;13.90;;;5.90;;
5052;SDS011;2545;50.892;5.740;2023-02-28T01:58:48;7.90;;;5.30;;
5052;SDS011;2545;50.892;5.740;2023-02-28T02:01:15;13.17;;;5.93;;
5052;SDS011;2545;50.892;5.740;2023-02-28T02:03:46;10.60;;;4.70;;
5052;SDS011;2545;50.892;5.740;2023-02-28T02:06:30;11.30;;;5.20;;
5052;SDS011;2545;50.892;5.740;2023-02-28T02:09:00;6.93;;;5.57;;
5052;SDS011;2545;50.892;5.740;2023-02-28T02:11:26;5.23;;;4.70;;
5052;SDS011;2545;50.892;5.740;2023-02-28T02:13:58;8.87;;;4.83;;
5052;SDS011;2545;50.892;5.740;2023-02-28T02:25:43;11.70;;;6.40;;
5052;SDS011;2545;50.892;5.740;2023-02-28T02:31:29;7.50;;;4.97;;
5052;SDS011;2545;50.892;5.740;2023-02-28T02:34:33;8.67;;;4.80;;
5052;SDS011;2545;50.892;5.740;2023-02-28T02:39:44;9.40;;;4.83;;
5052;SDS011;2545;50.892;5.740;2023-02-28T02:42:14;10.27;;;5.33;;
5052;SDS011;2545;50.892;5.740;2023-02-28T02:44:50;10.40;;;5.37;;
5052;SDS011;2545;50.892;5.740;2023-02-28T02:47:25;9.57;;;4.90;;
5052;SDS011;2545;50.892;5.740;2023-02-28T02:49:54;12.47;;;5.00;;
5052;SDS011;2545;50.892;5.740;2023-02-28T02:52:23;7.40;;;5.60;;
5052;SDS011;2545;50.892;5.740;2023-02-28T02:54:55;20.70;;;6.40;;
5052;SDS011;2545;50.892;5.740;2023-02-28T02:57:25;16.00;;;6.67;;
5052;SDS011;2545;50.892;5.740;2023-02-28T03:00:04;10.33;;;5.03;;
5052;SDS011;2545;50.892;5.740;2023-02-28T03:02:33;6.30;;;4.90;;
5052;SDS011;2545;50.892;5.740;2023-02-28T03:05:03;7.50;;;5.23;;
5052;SDS011;2545;50.892;5.740;2023-02-28T03:07:33;10.13;;;4.90;;
5052;SDS011;2545;50.892;5.740;2023-02-28T03:09:58;10.03;;;5.03;;
5052;SDS011;2545;50.892;5.740;2023-02-28T03:12:27;8.10;;;5.73;;
5052;SDS011;2545;50.892;5.740;2023-02-28T03:17:52;7.50;;;5.50;;
5052;SDS011;2545;50.892;5.740;2023-02-28T03:20:48;10.83;;;5.90;;
5052;SDS011;2545;50.892;5.740;2023-02-28T03:23:48;6.43;;;5.40;;
5052;SDS011;2545;50.892;5.740;2023-02-28T03:26:23;15.20;;;5.70;;
5052;SDS011;2545;50.892;5.740;2023-02-28T03:31:52;7.57;;;5.40;;
5052;SDS011;2545;50.892;5.740;2023-02-28T03:34:34;7.43;;;5.43;;
5052;SDS011;2545;50.892;5.740;2023-02-28T03:37:04;8.43;;;5.00;;
5052;SDS011;2545;50.892;5.740;2023-02-28T03:39:39;9.00;;;4.93;;
5052;SDS011;2545;50.892;5.740;2023-02-28T03:42:09;9.03;;;5.40;;
5052;SDS011;2545;50.892;5.740;2023-02-28T03:44:49;8.60;;;5.73;;
5052;SDS011;2545;50.892;5.740;2023-02-28T03:47:32;10.50;;;5.37;;
5052;SDS011;2545;50.892;5.740;2023-02-28T03:52:33;14.67;;;6.60;;
5052;SDS011;2545;50.892;5.740;2023-02-28T03:55:02;8.60;;;5.00;;
5052;SDS011;2545;50.892;5.740;2023-02-28T03:59:59;9.90;;;6.20;;
5052;SDS011;2545;50.892;5.740;2023-02-28T04:02:31;12.47;;;6.70;;
5052;SDS011;2545;50.892;5.740;2023-02-28T04:04:57;7.03;;;5.53;;
5052;SDS011;2545;50.892;5.740;2023-02-28T04:07:24;8.37;;;6.07;;
5052;SDS011;2545;50.892;5.740;2023-02-28T04:09:49;10.10;;;6.00;;
5052;SDS011;2545;50.892;5.740;2023-02-28T04:12:15;6.73;;;5.30;;
5052;SDS011;2545;50.892;5.740;2023-02-28T04:14:40;8.13;;;6.50;;
5052;SDS011;2545;50.892;5.740;2023-02-28T04:17:05;8.53;;;5.17;;
5052;SDS011;2545;50.892;5.740;2023-02-28T04:19:31;12.27;;;7.40;;
5052;SDS011;2545;50.892;5.740;2023-02-28T04:21:56;11.13;;;6.70;;
5052;SDS011;2545;50.892;5.740;2023-02-28T04:24:22;11.83;;;6.07;;
5052;SDS011;2545;50.892;5.740;2023-02-28T04:26:50;11.30;;;6.07;;
5052;SDS011;2545;50.892;5.740;2023-02-28T04:29:19;10.33;;;5.53;;
5052;SDS011;2545;50.892;5.740;2023-02-28T04:33:15;8.70;;;6.50;;
5052;SDS011;2545;50.892;5.740;2023-02-28T04:35:40;10.37;;;6.13;;
5052;SDS011;2545;50.892;5.740;2023-02-28T04:38:06;14.43;;;6.40;;
5052;SDS011;2545;50.892;5.740;2023-02-28T04:40:31;10.93;;;6.73;;
5052;SDS011;2545;50.892;5.740;2023-02-28T04:42:56;10.77;;;6.73;;
5052;SDS011;2545;50.892;5.740;2023-02-28T04:45:21;14.40;;;7.07;;
5052;SDS011;2545;50.892;5.740;2023-02-28T04:47:47;9.57;;;6.43;;
5052;SDS011;2545;50.892;5.740;2023-02-28T04:50:12;12.00;;;7.27;;
5052;SDS011;2545;50.892;5.740;2023-02-28T04:52:37;9.90;;;6.80;;
5052;SDS011;2545;50.892;5.740;2023-02-28T04:55:03;12.10;;;7.70;;
5052;SDS011;2545;50.892;5.740;2023-02-28T04:57:29;9.50;;;6.40;;
5052;SDS011;2545;50.892;5.740;2023-02-28T04:59:54;13.80;;;7.50;;
5052;SDS011;2545;50.892;5.740;2023-02-28T05:02:20;9.03;;;7.20;;
5052;SDS011;2545;50.892;5.740;2023-02-28T05:04:46;13.20;;;7.03;;
5052;SDS011;2545;50.892;5.740;2023-02-28T05:07:11;17.93;;;6.50;;
5052;SDS011;2545;50.892;5.740;2023-02-28T05:09:36;12.97;;;6.93;;
5052;SDS011;2545;50.892;5.740;2023-02-28T05:12:02;8.30;;;6.00;;
5052;SDS011;2545;50.892;5.740;2023-02-28T05:14:28;20.80;;;10.87;;
5052;SDS011;2545;50.892;5.740;2023-02-28T05:16:53;22.27;;;9.20;;
5052;SDS011;2545;50.892;5.740;2023-02-28T05:19:18;16.00;;;8.37;;
5052;SDS011;2545;50.892;5.740;2023-02-28T05:21:50;17.23;;;8.00;;
5052;SDS011;2545;50.892;5.740;2023-02-28T05:24:18;15.43;;;7.30;;
5052;SDS011;2545;50.892;5.740;2023-02-28T05:26:47;11.00;;;8.20;;
5052;SDS011;2545;50.892;5.740;2023-02-28T05:29:13;15.10;;;7.83;;
5052;SDS011;2545;50.892;5.740;2023-02-28T05:31:39;11.83;;;8.13;;
5052;SDS011;2545;50.892;5.740;2023-02-28T05:34:04;12.50;;;6.90;;
5052;SDS011;2545;50.892;5.740;2023-02-28T05:36:29;13.43;;;8.30;;
5052;SDS011;2545;50.892;5.740;2023-02-28T05:38:55;17.53;;;7.63;;
5052;SDS011;2545;50.892;5.740;2023-02-28T05:41:20;13.67;;;7.43;;
5052;SDS011;2545;50.892;5.740;2023-02-28T05:43:47;13.03;;;8.47;;
5052;SDS011;2545;50.892;5.740;2023-02-28T05:46:13;13.30;;;8.20;;
5052;SDS011;2545;50.892;5.740;2023-02-28T05:48:39;12.43;;;8.37;;
5052;SDS011;2545;50.892;5.740;2023-02-28T05:51:06;13.00;;;7.13;;
5052;SDS011;2545;50.892;5.740;2023-02-28T05:53:32;15.50;;;7.13;;
5052;SDS011;2545;50.892;5.740;2023-02-28T05:55:58;15.07;;;7.83;;
5052;SDS011;2545;50.892;5.740;2023-02-28T05:58:23;15.17;;;6.90;;
5052;SDS011;2545;50.892;5.740;2023-02-28T06:00:50;13.30;;;7.50;;
5052;SDS011;2545;50.892;5.740;2023-02-28T06:03:16;12.50;;;6.50;;
5052;SDS011;2545;50.892;5.740;2023-02-28T06:05:41;10.90;;;7.57;;
5052;SDS011;2545;50.892;5.740;2023-02-28T06:08:06;12.53;;;7.00;;
5052;SDS011;2545;50.892;5.740;2023-02-28T06:10:33;10.47;;;7.33;;
5052;SDS011;2545;50.892;5.740;2023-02-28T06:12:59;10.67;;;6.80;;
5052;SDS011;2545;50.892;5.740;2023-02-28T06:15:27;19.50;;;7.70;;
5052;SDS011;2545;50.892;5.740;2023-02-28T06:17:53;11.07;;;7.20;;
5052;SDS011;2545;50.892;5.740;2023-02-28T06:20:18;10.50;;;7.37;;
5052;SDS011;2545;50.892;5.740;2023-02-28T06:22:44;14.23;;;6.97;;
5052;SDS011;2545;50.892;5.740;2023-02-28T06:25:09;13.13;;;7.60;;
5052;SDS011;2545;50.892;5.740;2023-02-28T06:27:35;9.57;;;6.60;;
5052;SDS011;2545;50.892;5.740;2023-02-28T06:30:02;10.10;;;6.60;;
5052;SDS011;2545;50.892;5.740;2023-02-28T06:32:27;15.43;;;7.10;;
5052;SDS011;2545;50.892;5.740;2023-02-28T06:34:52;8.70;;;6.67;;
5052;SDS011;2545;50.892;5.740;2023-02-28T06:37:18;11.20;;;6.57;;
5052;SDS011;2545;50.892;5.740;2023-02-28T06:39:43;8.37;;;6.70;;
5052;SDS011;2545;50.892;5.740;2023-02-28T06:42:09;12.00;;;7.77;;
5052;SDS011;2545;50.892;5.740;2023-02-28T06:44:34;9.43;;;6.33;;
5052;SDS011;2545;50.892;5.740;2023-02-28T06:47:04;9.37;;;6.87;;
5052;SDS011;2545;50.892;5.740;2023-02-28T06:49:31;10.73;;;5.90;;
5052;SDS011;2545;50.892;5.740;2023-02-28T06:51:57;14.13;;;7.10;;
5052;SDS011;2545;50.892;5.740;2023-02-28T06:54:22;11.40;;;6.93;;
5052;SDS011;2545;50.892;5.740;2023-02-28T06:56:48;12.10;;;7.20;;
5052;SDS011;2545;50.892;5.740;2023-02-28T06:59:13;6.77;;;6.07;;
5052;SDS011;2545;50.892;5.740;2023-02-28T07:01:39;8.67;;;6.70;;
5052;SDS011;2545;50.892;5.740;2023-02-28T07:04:05;12.93;;;6.60;;
5052;SDS011;2545;50.892;5.740;2023-02-28T07:06:31;12.27;;;5.97;;
5052;SDS011;2545;50.892;5.740;2023-02-28T07:08:57;14.20;;;6.93;;
5052;SDS011;2545;50.892;5.740;2023-02-28T07:11:23;12.30;;;6.87;;
5052;SDS011;2545;50.892;5.740;2023-02-28T07:13:55;11.80;;;6.57;;
5052;SDS011;2545;50.892;5.740;2023-02-28T07:16:21;9.40;;;6.13;;
5052;SDS011;2545;50.892;5.740;2023-02-28T07:18:48;14.13;;;5.10;;
5052;SDS011;2545;50.892;5.740;2023-02-28T07:21:13;10.03;;;7.70;;
5052;SDS011;2545;50.892;5.740;2023-02-28T07:23:39;10.03;;;6.50;;
5052;SDS011;2545;50.892;5.740;2023-02-28T07:26:07;12.20;;;7.10;;
5052;SDS011;2545;50.892;5.740;2023-02-28T07:28:36;8.43;;;6.60;;
5052;SDS011;2545;50.892;5.740;2023-02-28T07:31:05;13.53;;;6.60;;
5052;SDS011;2545;50.892;5.740;2023-02-28T07:33:31;6.63;;;5.43;;
5052;SDS011;2545;50.892;5.740;2023-02-28T07:36:03;9.10;;;5.63;;
5052;SDS011;2545;50.892;5.740;2023-02-28T07:38:36;10.50;;;6.03;;
5052;SDS011;2545;50.892;5.740;2023-02-28T07:41:02;9.57;;;5.17;;
5052;SDS011;2545;50.892;5.740;2023-02-28T07:43:31;9.37;;;5.60;;
5052;SDS011;2545;50.892;5.740;2023-02-28T07:46:01;6.77;;;4.90;;
5052;SDS011;2545;50.892;5.740;2023-02-28T07:48:30;7.83;;;5.40;;
5052;SDS011;2545;50.892;5.740;2023-02-28T07:50:56;8.37;;;5.53;;
5052;SDS011;2545;50.892;5.740;2023-02-28T07:53:23;9.60;;;5.63;;
5052;SDS011;2545;50.892;5.740;2023-02-28T07:55:48;9.17;;;5.57;;
5052;SDS011;2545;50.892;5.740;2023-02-28T07:58:14;11.60;;;6.40;;
5052;SDS011;2545;50.892;5.740;2023-02-28T08:00:40;12.57;;;5.87;;
5052;SDS011;2545;50.892;5.740;2023-02-28T08:03:05;16.53;;;7.70;;
5052;SDS011;2545;50.892;5.740;2023-02-28T08:05:30;12.77;;;6.57;;
5052;SDS011;2545;50.892;5.740;2023-02-28T08:07:56;14.33;;;6.27;;
5052;SDS011;2545;50.892;5.740;2023-02-28T08:10:21;18.30;;;8.00;;
5052;SDS011;2545;50.892;5.740;2023-02-28T08:12:47;12.23;;;7.10;;
5052;SDS011;2545;50.892;5.740;2023-02-28T08:15:12;11.67;;;4.83;;
5052;SDS011;2545;50.892;5.740;2023-02-28T08:17:37;13.90;;;7.17;;
5052;SDS011;2545;50.892;5.740;2023-02-28T08:20:03;11.33;;;6.57;;
5052;SDS011;2545;50.892;5.740;2023-02-28T08:22:29;7.00;;;5.20;;
5052;SDS011;2545;50.892;5.740;2023-02-28T08:24:54;12.93;;;5.90;;
5052;SDS011;2545;50.892;5.740;2023-02-28T08:27:20;8.47;;;5.57;;
5052;SDS011;2545;50.892;5.740;2023-02-28T08:29:45;8.77;;;5.13;;
5052;SDS011;2545;50.892;5.740;2023-02-28T08:32:10;11.03;;;6.67;;
5052;SDS011;2545;50.892;5.740;2023-02-28T08:34:36;8.30;;;5.23;;
5052;SDS011;2545;50.892;5.740;2023-02-28T08:37:04;5.93;;;4.70;;
5052;SDS011;2545;50.892;5.740;2023-02-28T08:39:29;14.23;;;4.87;;
5052;SDS011;2545;50.892;5.740;2023-02-28T08:41:54;5.87;;;4.17;;
5052;SDS011;2545;50.892;5.740;2023-02-28T08:44:20;8.60;;;4.27;;
5052;SDS011;2545;50.892;5.740;2023-02-28T08:46:45;5.57;;;4.40;;
5052;SDS011;2545;50.892;5.740;2023-02-28T08:49:10;5.40;;;4.30;;
5052;SDS011;2545;50.892;5.740;2023-02-28T08:51:36;9.07;;;4.57;;
5052;SDS011;2545;50.892;5.740;2023-02-28T08:54:03;5.17;;;3.80;;
5052;SDS011;2545;50.892;5.740;2023-02-28T08:56:28;4.53;;;3.80;;
5052;SDS011;2545;50.892;5.740;2023-02-28T08:58:55;7.23;;;3.53;;
5052;SDS011;2545;50.892;5.740;2023-02-28T09:01:22;5.47;;;4.07;;
5052;SDS011;2545;50.892;5.740;2023-02-28T09:03:51;5.53;;;4.10;;
5052;SDS011;2545;50.892;5.740;2023-02-28T09:06:17;6.20;;;4.20;;
5052;SDS011;2545;50.892;5.740;2023-02-28T09:08:45;4.53;;;3.90;;
5052;SDS011;2545;50.892;5.740;2023-02-28T09:11:10;14.07;;;3.30;;
5052;SDS011;2545;50.892;5.740;2023-02-28T09:13:36;5.23;;;3.93;;
5052;SDS011;2545;50.892;5.740;2023-02-28T09:16:03;10.60;;;4.10;;
5052;SDS011;2545;50.892;5.740;2023-02-28T09:18:30;5.03;;;3.70;;
5052;SDS011;2545;50.892;5.740;2023-02-28T09:20:56;4.80;;;3.40;;
5052;SDS011;2545;50.892;5.740;2023-02-28T09:23:22;6.47;;;3.47;;
5052;SDS011;2545;50.892;5.740;2023-02-28T09:25:52;6.57;;;3.30;;
5052;SDS011;2545;50.892;5.740;2023-02-28T09:28:19;3.20;;;2.70;;
5052;SDS011;2545;50.892;5.740;2023-02-28T09:30:46;3.90;;;3.27;;
5052;SDS011;2545;50.892;5.740;2023-02-28T09:33:13;3.50;;;3.03;;
5052;SDS011;2545;50.892;5.740;2023-02-28T09:35:39;3.23;;;2.80;;
5052;SDS011;2545;50.892;5.740;2023-02-28T09:38:05;4.20;;;3.47;;
5052;SDS011;2545;50.892;5.740;2023-02-28T09:40:34;3.43;;;3.13;;
5052;SDS011;2545;50.892;5.740;2023-02-28T09:43:02;8.67;;;3.23;;
5052;SDS011;2545;50.892;5.740;2023-02-28T09:45:37;5.53;;;3.17;;
5052;SDS011;2545;50.892;5.740;2023-02-28T09:48:16;4.83;;;3.20;;
5052;SDS011;2545;50.892;5.740;2023-02-28T09:50:48;7.40;;;3.57;;
5052;SDS011;2545;50.892;5.740;2023-02-28T09:53:21;5.10;;;2.97;;
5052;SDS011;2545;50.892;5.740;2023-02-28T09:56:04;4.33;;;3.07;;
5052;SDS011;2545;50.892;5.740;2023-02-28T09:58:38;3.93;;;2.80;;
5052;SDS011;2545;50.892;5.740;2023-02-28T10:06:44;4.03;;;2.93;;
5052;SDS011;2545;50.892;5.740;2023-02-28T10:09:18;8.43;;;2.77;;
5052;SDS011;2545;50.892;5.740;2023-02-28T10:11:48;4.00;;;2.60;;
5052;SDS011;2545;50.892;5.740;2023-02-28T10:14:20;2.40;;;2.13;;
5052;SDS011;2545;50.892;5.740;2023-02-28T10:19:41;5.07;;;2.30;;
5052;SDS011;2545;50.892;5.740;2023-02-28T10:22:12;5.20;;;2.73;;
5052;SDS011;2545;50.892;5.740;2023-02-28T10:24:43;3.10;;;2.53;;
5052;SDS011;2545;50.892;5.740;2023-02-28T10:27:16;16.03;;;2.67;;
5052;SDS011;2545;50.892;5.740;2023-02-28T10:29:45;5.80;;;2.70;;
5052;SDS011;2545;50.892;5.740;2023-02-28T10:32:20;2.93;;;2.60;;
5052;SDS011;2545;50.892;5.740;2023-02-28T10:37:46;2.97;;;2.13;;
5052;SDS011;2545;50.892;5.740;2023-02-28T10:40:25;4.10;;;2.03;;
5052;SDS011;2545;50.892;5.740;2023-02-28T10:42:55;1.90;;;1.80;;
5052;SDS011;2545;50.892;5.740;2023-02-28T10:45:25;3.53;;;1.93;;
5052;SDS011;2545;50.892;5.740;2023-02-28T10:50:30;2.70;;;1.60;;
5052;SDS011;2545;50.892;5.740;2023-02-28T10:58:44;1.93;;;1.60;;
5052;SDS011;2545;50.892;5.740;2023-02-28T11:03:51;3.90;;;2.13;;
5052;SDS011;2545;50.892;5.740;2023-02-28T11:06:25;3.70;;;2.00;;
5052;SDS011;2545;50.892;5.740;2023-02-28T11:08:56;2.63;;;1.90;;
5052;SDS011;2545;50.892;5.740;2023-02-28T11:11:25;4.67;;;2.10;;
5052;SDS011;2545;50.892;5.740;2023-02-28T11:13:54;2.20;;;2.00;;
5052;SDS011;2545;50.892;5.740;2023-02-28T11:16:22;3.07;;;2.37;;
5052;SDS011;2545;50.892;5.740;2023-02-28T11:18:58;4.30;;;2.30;;
5052;SDS011;2545;50.892;5.740;2023-02-28T11:21:26;4.47;;;2.00;;
5052;SDS011;2545;50.892;5.740;2023-02-28T11:24:18;2.03;;;1.83;;
5052;SDS011;2545;50.892;5.740;2023-02-28T11:26:59;2.33;;;2.10;;
5052;SDS011;2545;50.892;5.740;2023-02-28T11:29:28;2.60;;;2.10;;
5052;SDS011;2545;50.892;5.740;2023-02-28T11:37:26;4.83;;;2.20;;
5052;SDS011;2545;50.892;5.740;2023-02-28T11:39:53;2.80;;;2.60;;
5052;SDS011;2545;50.892;5.740;2023-02-28T11:42:26;4.33;;;3.27;;
5052;SDS011;2545;50.892;5.740;2023-02-28T11:53:06;2.83;;;2.07;;
5052;SDS011;2545;50.892;5.740;2023-02-28T11:55:36;3.30;;;2.33;;
5052;SDS011;2545;50.892;5.740;2023-02-28T12:03:44;4.00;;;2.37;;
5052;SDS011;2545;50.892;5.740;2023-02-28T12:09:08;2.80;;;2.50;;
5052;SDS011;2545;50.892;5.740;2023-02-28T12:14:22;4.70;;;2.87;;
5052;SDS011;2545;50.892;5.740;2023-02-28T12:25:24;5.37;;;2.70;;
5052;SDS011;2545;50.892;5.740;2023-02-28T12:28:16;3.10;;;2.33;;
5052;SDS011;2545;50.892;5.740;2023-02-28T12:33:24;3.60;;;2.57;;
5052;SDS011;2545;50.892;5.740;2023-02-28T12:35:58;6.83;;;2.73;;
5052;SDS011;2545;50.892;5.740;2023-02-28T12:38:27;4.43;;;3.17;;
5052;SDS011;2545;50.892;5.740;2023-02-28T12:41:03;6.33;;;3.10;;
5052;SDS011;2545;50.892;5.740;2023-02-28T12:43:34;5.60;;;2.67;;
5052;SDS011;2545;50.892;5.740;2023-02-28T12:48:59;10.30;;;3.07;;
5052;SDS011;2545;50.892;5.740;2023-02-28T12:51:30;5.63;;;2.80;;
5052;SDS011;2545;50.892;5.740;2023-02-28T12:57:22;6.47;;;3.47;;
5052;SDS011;2545;50.892;5.740;2023-02-28T12:59:50;5.90;;;3.00;;
5052;SDS011;2545;50.892;5.740;2023-02-28T13:02:33;5.50;;;3.10;;
5052;SDS011;2545;50.892;5.740;2023-02-28T13:11:28;5.77;;;2.80;;
5052;SDS011;2545;50.892;5.740;2023-02-28T13:14:03;8.53;;;2.90;;
5052;SDS011;2545;50.892;5.740;2023-02-28T13:17:31;8.13;;;2.83;;
5052;SDS011;2545;50.892;5.740;2023-02-28T13:19:35;6.20;;;2.80;;
5052;SDS011;2545;50.892;5.740;2023-02-28T13:22:04;7.77;;;3.30;;
5052;SDS011;2545;50.892;5.740;2023-02-28T13:24:48;6.73;;;2.80;;
5052;SDS011;2545;50.892;5.740;2023-02-28T13:33:33;8.07;;;3.10;;
5052;SDS011;2545;50.892;5.740;2023-02-28T13:36:07;8.17;;;3.53;;
5052;SDS011;2545;50.892;5.740;2023-02-28T13:47:22;14.43;;;3.87;;
5052;SDS011;2545;50.892;5.740;2023-02-28T13:57:57;7.93;;;3.30;;
5052;SDS011;2545;50.892;5.740;2023-02-28T14:03:12;10.77;;;3.03;;
5052;SDS011;2545;50.892;5.740;2023-02-28T14:06:45;10.17;;;3.33;;
5052;SDS011;2545;50.892;5.740;2023-02-28T14:09:03;6.33;;;2.40;;
5052;SDS011;2545;50.892;5.740;2023-02-28T14:11:42;7.70;;;3.03;;
5052;SDS011;2545;50.892;5.740;2023-02-28T14:14:09;11.27;;;3.83;;
5052;SDS011;2545;50.892;5.740;2023-02-28T14:16:54;7.80;;;3.40;;
5052;SDS011;2545;50.892;5.740;2023-02-28T14:19:24;8.63;;;3.70;;
5052;SDS011;2545;50.892;5.740;2023-02-28T14:22:09;9.90;;;3.33;;
5052;SDS011;2545;50.892;5.740;2023-02-28T14:33:23;9.33;;;3.47;;
5052;SDS011;2545;50.892;5.740;2023-02-28T14:38:21;10.07;;;3.60;;
5052;SDS011;2545;50.892;5.740;2023-02-28T14:40:51;8.60;;;3.00;;
5052;SDS011;2545;50.892;5.740;2023-02-28T14:43:22;9.37;;;2.80;;
5052;SDS011;2545;50.892;5.740;2023-02-28T14:45:51;9.37;;;3.27;;
5052;SDS011;2545;50.892;5.740;2023-02-28T14:48:20;7.43;;;2.80;;
5052;SDS011;2545;50.892;5.740;2023-02-28T14:50:54;9.57;;;3.80;;
5052;SDS011;2545;50.892;5.740;2023-02-28T14:53:23;7.70;;;3.20;;
5052;SDS011;2545;50.892;5.740;2023-02-28T14:55:52;9.27;;;2.97;;
5052;SDS011;2545;50.892;5.740;2023-02-28T15:01:04;8.17;;;3.40;;
5052;SDS011;2545;50.892;5.740;2023-02-28T15:03:36;7.87;;;3.47;;
5052;SDS011;2545;50.892;5.740;2023-02-28T15:06:04;11.23;;;3.70;;
5052;SDS011;2545;50.892;5.740;2023-02-28T15:08:31;9.67;;;3.60;;
5052;SDS011;2545;50.892;5.740;2023-02-28T15:11:04;7.97;;;3.20;;
5052;SDS011;2545;50.892;5.740;2023-02-28T15:13:40;10.27;;;3.20;;
5052;SDS011;2545;50.892;5.740;2023-02-28T15:18:51;9.40;;;3.37;;
5052;SDS011;2545;50.892;5.740;2023-02-28T15:21:21;9.93;;;3.60;;
5052;SDS011;2545;50.892;5.740;2023-02-28T15:23:49;12.90;;;3.37;;
5052;SDS011;2545;50.892;5.740;2023-02-28T15:26:28;9.13;;;3.00;;
5052;SDS011;2545;50.892;5.740;2023-02-28T15:28:58;15.10;;;4.23;;
5052;SDS011;2545;50.892;5.740;2023-02-28T15:31:28;8.83;;;3.13;;
5052;SDS011;2545;50.892;5.740;2023-02-28T15:33:57;7.30;;;3.30;;
5052;SDS011;2545;50.892;5.740;2023-02-28T15:36:28;8.30;;;3.27;;
5052;SDS011;2545;50.892;5.740;2023-02-28T15:38:57;8.27;;;2.67;;
5052;SDS011;2545;50.892;5.740;2023-02-28T15:47:06;10.10;;;3.17;;
5052;SDS011;2545;50.892;5.740;2023-02-28T15:50:03;12.27;;;3.43;;
5052;SDS011;2545;50.892;5.740;2023-02-28T15:52:29;9.30;;;3.27;;
5052;SDS011;2545;50.892;5.740;2023-02-28T15:57:43;9.70;;;4.47;;
5052;SDS011;2545;50.892;5.740;2023-02-28T16:00:11;12.53;;;4.10;;
5052;SDS011;2545;50.892;5.740;2023-02-28T16:02:39;13.50;;;3.47;;
5052;SDS011;2545;50.892;5.740;2023-02-28T16:07:34;17.17;;;3.30;;
5052;SDS011;2545;50.892;5.740;2023-02-28T16:10:00;11.30;;;3.47;;
5052;SDS011;2545;50.892;5.740;2023-02-28T16:12:32;8.50;;;3.50;;
5052;SDS011;2545;50.892;5.740;2023-02-28T16:15:00;9.80;;;3.37;;
5052;SDS011;2545;50.892;5.740;2023-02-28T16:17:35;8.80;;;3.30;;
5052;SDS011;2545;50.892;5.740;2023-02-28T16:20:22;13.53;;;3.40;;
5052;SDS011;2545;50.892;5.740;2023-02-28T16:22:54;20.30;;;3.80;;
5052;SDS011;2545;50.892;5.740;2023-02-28T16:25:21;15.20;;;3.83;;
5052;SDS011;2545;50.892;5.740;2023-02-28T16:27:50;11.03;;;3.30;;
5052;SDS011;2545;50.892;5.740;2023-02-28T16:30:22;13.37;;;3.87;;
5052;SDS011;2545;50.892;5.740;2023-02-28T16:32:49;10.03;;;4.63;;
5052;SDS011;2545;50.892;5.740;2023-02-28T16:35:16;8.53;;;3.50;;
5052;SDS011;2545;50.892;5.740;2023-02-28T16:37:42;14.07;;;3.67;;
5052;SDS011;2545;50.892;5.740;2023-02-28T16:40:13;9.13;;;3.90;;
5052;SDS011;2545;50.892;5.740;2023-02-28T16:42:40;12.17;;;4.40;;
5052;SDS011;2545;50.892;5.740;2023-02-28T16:45:06;8.70;;;3.30;;
5052;SDS011;2545;50.892;5.740;2023-02-28T16:47:35;10.17;;;3.40;;
5052;SDS011;2545;50.892;5.740;2023-02-28T16:50:00;8.87;;;3.13;;
5052;SDS011;2545;50.892;5.740;2023-02-28T16:52:26;11.17;;;3.50;;
5052;SDS011;2545;50.892;5.740;2023-02-28T16:54:51;9.70;;;3.63;;
5052;SDS011;2545;50.892;5.740;2023-02-28T16:57:19;10.90;;;3.80;;
5052;SDS011;2545;50.892;5.740;2023-02-28T16:59:48;11.03;;;4.23;;
5052;SDS011;2545;50.892;5.740;2023-02-28T17:02:15;10.50;;;3.50;;
5052;SDS011;2545;50.892;5.740;2023-02-28T17:04:44;16.30;;;3.90;;
5052;SDS011;2545;50.892;5.740;2023-02-28T17:07:13;8.90;;;3.33;;
5052;SDS011;2545;50.892;5.740;2023-02-28T17:09:41;11.70;;;3.70;;
5052;SDS011;2545;50.892;5.740;2023-02-28T17:12:07;9.40;;;3.80;;
5052;SDS011;2545;50.892;5.740;2023-02-28T17:14:34;9.93;;;3.77;;
5052;SDS011;2545;50.892;5.740;2023-02-28T17:16:59;12.67;;;3.80;;
5052;SDS011;2545;50.892;5.740;2023-02-28T17:19:25;10.27;;;3.47;;
5052;SDS011;2545;50.892;5.740;2023-02-28T17:21:50;9.73;;;4.50;;
5052;SDS011;2545;50.892;5.740;2023-02-28T17:24:15;10.47;;;3.80;;
5052;SDS011;2545;50.892;5.740;2023-02-28T17:26:41;9.90;;;5.20;;
5052;SDS011;2545;50.892;5.740;2023-02-28T17:29:17;8.60;;;4.20;;
5052;SDS011;2545;50.892;5.740;2023-02-28T17:31:44;12.23;;;4.17;;
5052;SDS011;2545;50.892;5.740;2023-02-28T17:34:10;12.47;;;6.33;;
5052;SDS011;2545;50.892;5.740;2023-02-28T17:36:35;61.07;;;22.33;;
5052;SDS011;2545;50.892;5.740;2023-02-28T17:39:02;66.67;;;26.30;;
5052;SDS011;2545;50.892;5.740;2023-02-28T17:41:33;85.13;;;32.50;;
5052;SDS011;2545;50.892;5.740;2023-02-28T17:43:59;14.40;;;6.43;;
5052;SDS011;2545;50.892;5.740;2023-02-28T17:46:24;6.80;;;4.57;;
5052;SDS011;2545;50.892;5.740;2023-02-28T17:48:50;14.23;;;5.13;;
5052;SDS011;2545;50.892;5.740;2023-02-28T17:51:18;8.63;;;5.63;;
5052;SDS011;2545;50.892;5.740;2023-02-28T17:53:46;8.47;;;5.77;;
5052;SDS011;2545;50.892;5.740;2023-02-28T17:56:12;17.33;;;4.50;;